Time;durP1;ratioP1;P1;durP2;ratioP2;P2;SDS_P1;SDS_P2;PMS_P1;PMS_P2;Temp;Humidity;BMP_temperature;BMP_pressure;BME280_temperature;BME280_humidity;BME280_pressure;Samples;Min_cycle;Max_cycle;Signal;HPM_P1;HPM_P2
2020/12/02 00:01:17;;;;;;;14.77;11.23;;;;;;;6.18;70.12;100141.31;4948987;28;97330;-72
2020/12/02 00:03:54;;;;;;;13.98;11.68;;;;;;;6.17;70.08;100137.03;4948027;28;99446;-72
2020/12/02 00:06:21;;;;;;;14.15;11.82;;;;;;;6.23;69.67;100131.66;4949888;28;98443;-71
2020/12/02 00:08:52;;;;;;;12.35;11.07;;;;;;;6.22;70.10;100137.72;4946781;28;98502;-72
2020/12/02 00:11:18;;;;;;;13.55;11.80;;;;;;;6.06;70.08;100140.00;4947971;28;97365;-72
2020/12/02 00:13:47;;;;;;;12.50;10.85;;;;;;;6.25;69.39;100135.91;4947949;28;97018;-71
2020/12/02 00:16:17;;;;;;;13.60;11.93;;;;;;;6.17;69.53;100153.41;4949344;28;98448;-72
2020/12/02 00:18:44;;;;;;;12.50;11.20;;;;;;;6.21;69.61;100152.44;4945065;28;98571;-72
2020/12/02 00:21:11;;;;;;;13.43;11.45;;;;;;;6.26;69.10;100147.94;4931940;28;98912;-71
2020/12/02 00:23:38;;;;;;;12.57;10.32;;;;;;;6.24;69.34;100144.56;4952623;28;96760;-72
2020/12/02 00:26:07;;;;;;;13.48;11.52;;;;;;;6.09;70.07;100145.06;4947025;28;99599;-72
2020/12/02 00:28:35;;;;;;;13.30;11.65;;;;;;;6.16;70.32;100146.56;4953882;28;98546;-73
2020/12/02 00:31:01;;;;;;;12.05;10.85;;;;;;;6.18;69.35;100152.53;4956980;28;96919;-74
2020/12/02 00:33:27;;;;;;;14.10;11.32;;;;;;;6.28;69.02;100148.75;4955816;28;96653;-72
2020/12/02 00:35:54;;;;;;;13.82;12.32;;;;;;;6.32;68.61;100157.25;4957180;28;98618;-72
2020/12/02 00:38:21;;;;;;;12.48;11.00;;;;;;;6.36;69.12;100148.47;4958137;28;98501;-73
2020/12/02 00:40:47;;;;;;;13.30;11.80;;;;;;;6.11;70.20;100145.84;4949845;28;97260;-72
2020/12/02 00:43:20;;;;;;;12.80;11.20;;;;;;;6.23;69.75;100147.19;4947542;28;97550;-72
2020/12/02 00:45:47;;;;;;;13.23;11.70;;;;;;;6.39;68.51;100143.22;4950908;28;101124;-71
2020/12/02 00:48:19;;;;;;;13.18;11.63;;;;;;;6.33;68.81;100142.53;4948481;28;98810;-71
2020/12/02 00:50:46;;;;;;;11.98;10.77;;;;;;;6.33;69.35;100150.31;4944492;28;96636;-71
2020/12/02 00:53:14;;;;;;;12.10;10.90;;;;;;;6.33;69.33;100151.16;4950302;28;96702;-71
2020/12/02 00:55:41;;;;;;;13.20;11.05;;;;;;;6.28;69.23;100148.75;4945423;28;98498;-72
2020/12/02 00:58:09;;;;;;;13.18;11.80;;;;;;;6.34;69.49;100154.59;4941909;28;100003;-70
2020/12/02 01:00:38;;;;;;;12.40;10.38;;;;;;;6.28;69.79;100146.16;4942084;28;97518;-72
2020/12/02 01:03:17;;;;;;;15.75;14.02;;;;;;;6.27;69.57;100147.03;4945813;28;98978;-71
2020/12/02 01:05:47;;;;;;;14.40;12.75;;;;;;;6.35;69.43;100145.94;4943417;28;99897;-71
2020/12/02 01:08:29;;;;;;;16.48;13.27;;;;;;;6.28;68.98;100151.34;4942158;28;98544;-72
2020/12/02 01:11:02;;;;;;;13.48;11.35;;;;;;;6.21;69.89;100154.16;4945938;28;97810;-72
2020/12/02 01:13:31;;;;;;;11.60;10.35;;;;;;;6.15;69.75;100160.41;4942725;28;97190;-73
2020/12/02 01:15:58;;;;;;;14.13;12.65;;;;;;;6.03;69.94;100146.13;4948187;28;98473;-73
2020/12/02 01:18:26;;;;;;;12.27;11.07;;;;;;;5.96;69.80;100149.78;4943662;28;98604;-73
2020/12/02 01:21:12;;;;;;;14.07;12.25;;;;;;;5.70;70.94;100142.00;4959332;28;96786;-73
2020/12/02 01:23:39;;;;;;;15.65;10.85;;;;;;;6.00;69.68;100142.78;4956400;28;100689;-72
2020/12/02 01:26:05;;;;;;;13.60;11.02;;;;;;;5.91;69.83;100145.63;4941257;28;98882;-73
2020/12/02 01:28:32;;;;;;;12.60;11.27;;;;;;;5.83;70.10;100143.31;4945297;28;98451;-73
2020/12/02 01:30:58;;;;;;;13.38;10.95;;;;;;;5.90;70.58;100139.63;4963065;28;96631;-73
2020/12/02 01:33:25;;;;;;;13.57;11.02;;;;;;;5.71;70.31;100144.53;4960910;28;96802;-73
2020/12/02 01:35:52;;;;;;;13.38;11.13;;;;;;;5.71;70.64;100144.53;4944869;28;98451;-73
2020/12/02 01:38:22;;;;;;;11.23;9.95;;;;;;;5.88;68.88;100150.91;4941502;28;98450;-74
2020/12/02 01:40:48;;;;;;;12.93;11.57;;;;;;;6.01;69.21;100152.22;4944405;28;98330;-74
2020/12/02 01:43:15;;;;;;;12.63;11.02;;;;;;;5.86;68.88;100147.53;4927217;28;97478;-73
2020/12/02 01:45:48;;;;;;;11.57;10.30;;;;;;;5.83;68.23;100150.22;4945252;28;98501;-73
2020/12/02 01:48:29;;;;;;;13.52;10.85;;;;;;;5.71;67.73;100141.13;4940740;28;98599;-74
2020/12/02 01:51:23;;;;;;;12.07;10.70;;;;;;;5.31;68.06;100149.25;4945851;28;97068;-73
2020/12/02 01:54:17;;;;;;;12.82;10.52;;;;;;;5.56;66.70;100139.00;4945971;28;96712;-73
2020/12/02 01:57:01;;;;;;;12.27;10.77;;;;;;;5.53;66.53;100132.19;4945581;28;97564;-73
2020/12/02 01:59:34;;;;;;;11.65;10.45;;;;;;;5.45;66.01;100131.59;4940296;28;97993;-73
2020/12/02 02:14:38;;;;;;;9.82;8.82;;;;;;;4.91;67.14;100128.00;1940683;28;111658;-70
2020/12/02 02:17:04;;;;;;;10.88;8.77;;;;;;;4.99;67.06;100127.78;4935590;28;96855;-71
2020/12/02 02:19:30;;;;;;;11.38;10.20;;;;;;;4.98;66.73;100131.25;4935747;28;96727;-72
2020/12/02 02:21:57;;;;;;;14.18;12.30;;;;;;;5.19;66.00;100130.63;4935040;28;97795;-72
2020/12/02 02:24:24;;;;;;;16.50;14.88;;;;;;;5.09;66.40;100126.63;4944396;28;98466;-72
2020/12/02 02:26:51;;;;;;;17.20;15.27;;;;;;;5.15;66.18;100118.69;4946213;28;97577;-72
2020/12/02 02:29:38;;;;;;;20.02;15.95;;;;;;;4.99;67.29;100122.59;4951307;28;96766;-71
2020/12/02 02:32:07;;;;;;;16.63;13.88;;;;;;;4.98;66.68;100121.75;4930364;28;98518;-72
2020/12/02 02:34:35;;;;;;;15.20;13.57;;;;;;;4.91;66.89;100120.25;4948355;28;98580;-71
2020/12/02 02:37:04;;;;;;;17.02;15.18;;;;;;;4.94;66.86;100115.00;4948519;28;96830;-71
2020/12/02 02:39:30;;;;;;;16.17;13.73;;;;;;;5.08;66.46;100119.75;4943549;28;96816;-71
2020/12/02 02:42:03;;;;;;;15.50;12.93;;;;;;;5.00;66.59;100124.28;4947158;28;98404;-71
2020/12/02 02:44:29;;;;;;;15.13;13.45;;;;;;;5.03;66.56;100116.47;4942428;28;97508;-72
2020/12/02 02:46:56;;;;;;;14.32;12.90;;;;;;;4.97;66.32;100116.66;4948196;28;97370;-71
2020/12/02 02:49:22;;;;;;;13.10;11.48;;;;;;;5.07;65.82;100117.22;4953256;28;96790;-72
2020/12/02 02:51:49;;;;;;;11.70;10.50;;;;;;;4.91;67.27;100114.25;4948697;28;98592;-70
2020/12/02 02:54:15;;;;;;;13.00;11.45;;;;;;;4.85;66.92;100114.44;4945422;28;98600;-70
2020/12/02 02:56:42;;;;;;;13.27;11.88;;;;;;;4.87;66.53;100113.47;4943785;28;97058;-70
2020/12/02 02:59:10;;;;;;;12.07;10.82;;;;;;;5.09;65.75;100102.53;4944412;28;97357;-70
2020/12/02 03:01:40;;;;;;;12.13;10.30;;;;;;;5.00;66.28;100104.47;4938913;28;98576;-71
2020/12/02 03:04:07;;;;;;;10.90;9.80;;;;;;;5.12;65.87;100098.13;4941799;28;98531;-71
2020/12/02 03:06:34;;;;;;;11.23;10.13;;;;;;;5.07;65.84;100107.75;4943958;28;99847;-70
2020/12/02 03:09:00;;;;;;;11.25;9.90;;;;;;;4.98;66.54;100106.25;4946651;28;97269;-71
2020/12/02 03:11:26;;;;;;;10.85;9.35;;;;;;;5.13;65.38;100104.97;4950720;28;98605;-72
2020/12/02 03:13:53;;;;;;;9.18;8.27;;;;;;;5.15;65.46;100107.50;4951642;28;98593;-72
2020/12/02 03:16:34;;;;;;;8.60;7.80;;;;;;;4.75;67.30;100105.25;4952789;28;96557;-72
2020/12/02 03:19:33;;;;;;;9.55;8.40;;;;;;;4.86;66.91;100101.47;4945460;28;97656;-71
2020/12/02 03:22:04;;;;;;;8.15;7.43;;;;;;;4.91;66.54;100109.09;4954042;28;98622;-71
2020/12/02 03:24:30;;;;;;;7.95;7.15;;;;;;;4.80;67.22;100108.56;4942741;28;99371;-71
2020/12/02 03:26:56;;;;;;;10.50;7.85;;;;;;;4.72;67.85;100101.84;4946062;28;96822;-71
2020/12/02 03:29:23;;;;;;;8.60;7.80;;;;;;;4.66;68.27;100099.44;4943323;28;97563;-70
2020/12/02 03:31:49;;;;;;;8.02;7.20;;;;;;;4.76;67.47;100094.88;4944559;28;98637;-71
2020/12/02 03:34:17;;;;;;;8.18;7.38;;;;;;;4.51;68.62;100094.69;4943596;28;98660;-70
2020/12/02 03:36:44;;;;;;;8.57;7.78;;;;;;;4.62;67.71;100095.25;4944335;28;96985;-71
2020/12/02 03:39:11;;;;;;;9.48;7.80;;;;;;;4.72;67.83;100086.34;4943160;28;96930;-70
2020/12/02 03:41:38;;;;;;;8.80;7.47;;;;;;;4.76;66.84;100081.97;4943680;28;98568;-71
2020/12/02 03:44:04;;;;;;;9.25;8.35;;;;;;;4.68;67.67;100082.16;4941729;28;100643;-72
2020/12/02 03:46:31;;;;;;;8.85;6.50;;;;;;;4.72;67.86;100082.94;4961486;28;97621;-71
2020/12/02 03:48:57;;;;;;;8.70;7.90;;;;;;;4.67;67.50;100077.88;4959752;28;97661;-71
2020/12/02 03:51:24;;;;;;;8.95;7.75;;;;;;;4.56;67.82;100081.66;4942827;28;98410;-71
2020/12/02 03:53:50;;;;;;;9.88;8.63;;;;;;;4.47;68.01;100082.75;4940258;28;98664;-71
2020/12/02 03:56:19;;;;;;;10.35;8.25;;;;;;;4.50;68.16;100082.69;4940432;28;96684;-71
2020/12/02 03:58:46;;;;;;;8.93;7.93;;;;;;;4.72;67.46;100078.59;4946740;28;96809;-71
2020/12/02 04:01:13;;;;;;;9.65;8.65;;;;;;;4.89;67.00;100078.09;4940183;28;98410;-70
2020/12/02 04:03:39;;;;;;;9.57;8.57;;;;;;;4.92;66.30;100072.88;4945936;28;98618;-70
2020/12/02 04:06:06;;;;;;;8.60;7.60;;;;;;;4.93;66.36;100063.38;4944511;28;97758;-70
2020/12/02 04:08:32;;;;;;;9.63;8.63;;;;;;;4.83;66.43;100064.53;4942675;28;99176;-71
2020/12/02 04:10:59;;;;;;;9.07;8.15;;;;;;;4.93;66.05;100055.63;4942705;28;98696;-71
2020/12/02 04:13:26;;;;;;;9.60;8.63;;;;;;;4.94;66.46;100057.31;4943610;28;98614;-71
2020/12/02 04:15:52;;;;;;;9.52;8.52;;;;;;;4.62;67.36;100045.34;4942655;28;97989;-71
2020/12/02 04:18:18;;;;;;;10.00;8.98;;;;;;;4.49;67.71;100050.03;4946036;28;97777;-71
2020/12/02 04:20:46;;;;;;;9.05;7.90;;;;;;;4.67;67.32;100051.22;4941802;28;98386;-71
2020/12/02 04:23:12;;;;;;;9.27;8.32;;;;;;;4.63;67.55;100050.47;4948490;28;98758;-71
2020/12/02 04:25:39;;;;;;;10.57;9.25;;;;;;;4.69;67.56;100044.31;4951747;28;97699;-71
2020/12/02 04:28:05;;;;;;;9.27;8.35;;;;;;;4.42;68.35;100044.19;4952932;28;97000;-71
2020/12/02 04:30:32;;;;;;;11.13;9.98;;;;;;;4.46;68.28;100043.19;4955355;28;98703;-72
2020/12/02 04:32:58;;;;;;;10.82;9.60;;;;;;;4.73;67.19;100048.47;4956152;28;98587;-72
2020/12/02 04:35:24;;;;;;;10.20;9.13;;;;;;;4.65;67.55;100048.69;4955986;28;96472;-72
2020/12/02 04:37:54;;;;;;;10.93;9.82;;;;;;;4.54;67.62;100048.16;4956565;28;96748;-72
2020/12/02 04:40:34;;;;;;;9.73;8.75;;;;;;;4.60;67.95;100052.31;4956540;28;98521;-72
2020/12/02 04:43:08;;;;;;;10.02;9.00;;;;;;;4.56;68.08;100056.69;4951994;28;98380;-72
2020/12/02 04:45:34;;;;;;;9.45;8.48;;;;;;;4.64;67.83;100062.50;4954874;28;96964;-72
2020/12/02 04:48:09;;;;;;;11.77;9.95;;;;;;;4.75;67.18;100062.19;4950736;28;96590;-73
2020/12/02 04:50:36;;;;;;;10.73;9.63;;;;;;;4.63;67.76;100057.34;4952479;28;98707;-70
2020/12/02 04:53:18;;;;;;;10.27;9.27;;;;;;;4.65;67.59;100055.59;4956306;28;98483;-69
2020/12/02 04:55:46;;;;;;;11.52;10.38;;;;;;;4.50;68.23;100062.03;4957072;28;96685;-70
2020/12/02 04:58:39;;;;;;;9.48;8.48;;;;;;;4.70;67.42;100049.41;4956673;28;96639;-72
2020/12/02 05:01:15;;;;;;;10.50;9.40;;;;;;;4.51;68.65;100048.22;4956109;28;98539;-71
2020/12/02 05:04:05;;;;;;;9.95;8.95;;;;;;;4.79;67.12;100047.44;4957587;28;98627;-71
2020/12/02 05:06:34;;;;;;;10.15;8.77;;;;;;;4.79;67.37;100055.19;4956992;28;96530;-71
2020/12/02 05:09:09;;;;;;;8.80;7.90;;;;;;;4.75;67.36;100054.44;4955396;28;97012;-72
2020/12/02 05:11:37;;;;;;;9.05;8.15;;;;;;;4.72;67.25;100036.44;4956870;28;98602;-73
2020/12/02 05:14:05;;;;;;;8.93;7.20;;;;;;;4.61;67.73;100039.34;4955508;28;98566;-73
2020/12/02 05:16:31;;;;;;;9.63;8.20;;;;;;;4.49;68.18;100044.88;4955347;28;97853;-73
2020/12/02 05:19:25;;;;;;;9.45;8.43;;;;;;;4.55;67.96;100036.94;4955295;28;97757;-73
2020/12/02 05:21:52;;;;;;;8.40;7.60;;;;;;;4.62;67.61;100043.59;4954248;28;98535;-72
2020/12/02 05:24:19;;;;;;;8.73;7.93;;;;;;;4.55;68.05;100044.69;4952238;28;97551;-72
2020/12/02 05:26:47;;;;;;;7.20;6.50;;;;;;;4.50;67.92;100035.38;4959573;28;96570;-72
2020/12/02 05:29:33;;;;;;;8.73;7.82;;;;;;;4.46;68.22;100032.88;4962426;28;96725;-72
2020/12/02 05:32:05;;;;;;;7.72;6.93;;;;;;;4.52;68.35;100028.44;4956044;28;98445;-73
2020/12/02 05:34:33;;;;;;;9.18;7.88;;;;;;;4.70;67.59;100025.31;4967476;28;98743;-70
2020/12/02 05:37:00;;;;;;;7.85;7.05;;;;;;;4.66;67.56;100021.13;4954488;28;96721;-71
2020/12/02 05:39:35;;;;;;;7.03;6.32;;;;;;;4.80;67.25;100020.75;4955492;28;97741;-67
2020/12/02 05:42:03;;;;;;;8.82;6.63;;;;;;;4.65;67.47;100022.88;4955736;28;97723;-69
2020/12/02 05:44:36;;;;;;;8.88;6.50;;;;;;;4.61;67.90;100017.84;4966221;28;98614;-74
2020/12/02 05:47:10;;;;;;;7.17;6.50;;;;;;;4.75;67.08;100020.03;4967400;28;96632;-71
2020/12/02 05:49:50;;;;;;;8.40;7.40;;;;;;;4.65;67.00;100012.56;4948598;28;96649;-70
2020/12/02 05:52:33;;;;;;;8.23;7.40;;;;;;;4.45;67.82;100020.03;4963251;28;98461;-71
2020/12/02 05:55:18;;;;;;;8.02;7.22;;;;;;;4.17;68.95;100017.38;4955913;28;98490;-71
2020/12/02 05:57:59;;;;;;;6.78;5.88;;;;;;;4.52;68.17;100012.94;4954194;28;96699;-71
2020/12/02 06:00:28;;;;;;;7.22;6.53;;;;;;;4.53;67.61;100019.78;4952144;28;96635;-72
2020/12/02 06:02:55;;;;;;;9.52;7.53;;;;;;;4.45;67.98;100017.44;4948917;28;98617;-71
2020/12/02 06:05:21;;;;;;;6.63;5.93;;;;;;;4.32;68.92;100010.94;4951606;28;98806;-70
2020/12/02 06:07:50;;;;;;;7.43;6.65;;;;;;;4.53;67.74;100014.63;4962455;28;97724;-74
2020/12/02 06:10:17;;;;;;;6.60;5.97;;;;;;;4.67;66.80;100010.75;4956876;28;97270;-72
2020/12/02 06:12:44;;;;;;;7.07;6.20;;;;;;;4.70;66.82;100013.25;4955061;28;98987;-70
2020/12/02 06:15:19;;;;;;;6.70;5.68;;;;;;;4.58;67.53;100023.97;4953906;28;98422;-70
2020/12/02 06:17:45;;;;;;;6.32;5.50;;;;;;;4.54;67.27;100009.44;4953637;28;96635;-71
2020/12/02 06:20:11;;;;;;;7.88;6.65;;;;;;;4.55;67.41;100018.88;4954192;28;97476;-68
2020/12/02 06:22:51;;;;;;;7.97;6.90;;;;;;;4.45;68.37;100020.03;4951975;28;98776;-66
2020/12/02 06:25:52;;;;;;;6.95;6.25;;;;;;;4.45;67.92;100022.59;4954755;28;98615;-71
2020/12/02 06:28:22;;;;;;;7.20;6.50;;;;;;;4.52;67.57;100018.94;4949949;28;96927;-72
2020/12/02 06:30:55;;;;;;;6.78;6.13;;;;;;;4.70;67.15;100018.44;4966025;28;96963;-68
2020/12/02 06:33:22;;;;;;;6.88;6.20;;;;;;;4.59;67.83;100019.63;4955920;28;98566;-69
2020/12/02 06:35:50;;;;;;;7.40;6.70;;;;;;;4.51;67.97;100021.56;4937450;28;99563;-68
2020/12/02 06:38:23;;;;;;;6.63;5.93;;;;;;;4.41;68.31;100027.00;4944711;28;97212;-69
2020/12/02 06:40:59;;;;;;;7.63;6.93;;;;;;;4.53;67.87;100025.81;4943414;28;97227;-69
2020/12/02 06:43:28;;;;;;;6.45;5.82;;;;;;;4.54;67.39;100032.66;4941066;28;98470;-69
2020/12/02 06:46:00;;;;;;;6.72;6.05;;;;;;;4.47;68.35;100037.16;4939977;28;98628;-70
2020/12/02 06:48:35;;;;;;;5.93;5.32;;;;;;;4.62;67.63;100035.03;4946981;28;98158;-67
2020/12/02 06:51:01;;;;;;;12.82;5.90;;;;;;;4.58;67.01;100031.69;4940805;28;97250;-69
2020/12/02 06:53:28;;;;;;;6.05;5.32;;;;;;;4.39;68.75;100033.09;4941029;28;98488;-69
2020/12/02 06:55:58;;;;;;;5.88;5.10;;;;;;;4.45;68.27;100023.44;4942874;28;98467;-70
2020/12/02 06:58:25;;;;;;;6.43;5.22;;;;;;;4.38;68.52;100026.25;4936589;28;96860;-70
2020/12/02 07:00:54;;;;;;;6.18;5.57;;;;;;;4.58;67.79;100023.97;4945448;28;97062;-69
2020/12/02 07:03:40;;;;;;;5.97;5.38;;;;;;;4.49;68.25;100024.22;4945453;28;98633;-70
2020/12/02 07:06:21;;;;;;;6.15;5.55;;;;;;;4.53;67.44;100019.78;4958075;28;98915;-66
2020/12/02 07:08:50;;;;;;;5.65;5.15;;;;;;;4.60;67.62;100019.59;4941544;28;97942;-69
2020/12/02 07:11:18;;;;;;;5.47;4.97;;;;;;;4.72;66.92;100015.78;4948192;28;97636;-70
2020/12/02 07:13:47;;;;;;;7.28;6.38;;;;;;;4.54;67.94;100013.75;4956238;28;98232;-72
2020/12/02 07:16:30;;;;;;;7.63;5.72;;;;;;;4.42;68.34;100027.84;4938482;28;98720;-70
2020/12/02 07:19:02;;;;;;;8.10;6.85;;;;;;;4.50;68.32;100036.22;4944904;28;96721;-70
2020/12/02 07:21:33;;;;;;;8.70;7.75;;;;;;;4.39;68.48;100036.53;4942810;28;100550;-70
2020/12/02 07:24:00;;;;;;;10.25;7.53;;;;;;;4.52;68.32;100049.91;4941702;28;98512;-70
2020/12/02 07:26:27;;;;;;;8.18;7.25;;;;;;;4.60;67.86;100042.81;4944162;28;98425;-69
2020/12/02 07:29:04;;;;;;;9.13;6.95;;;;;;;4.55;67.75;100044.69;4947264;28;96738;-69
2020/12/02 07:31:31;;;;;;;8.25;6.03;;;;;;;4.45;68.44;100038.09;4955733;28;96769;-70
2020/12/02 07:34:04;;;;;;;7.57;6.72;;;;;;;4.33;69.08;100035.84;4943889;28;98535;-69
2020/12/02 07:36:35;;;;;;;7.53;5.83;;;;;;;4.39;69.55;100046.84;4951320;28;98523;-70
2020/12/02 07:39:13;;;;;;;10.25;7.68;;;;;;;4.51;68.55;100043.06;4966713;28;96745;-70
2020/12/02 07:42:02;;;;;;;8.30;7.43;;;;;;;4.36;69.26;100049.50;4953148;28;96694;-70
2020/12/02 07:44:30;;;;;;;9.93;8.07;;;;;;;4.53;68.26;100046.47;4945860;28;98782;-69
2020/12/02 07:46:57;;;;;;;8.65;7.03;;;;;;;4.61;67.70;100049.66;4925785;28;98606;-70
2020/12/02 07:49:24;;;;;;;6.57;5.80;;;;;;;4.56;67.85;100048.94;4946458;28;99535;-70
2020/12/02 07:51:52;;;;;;;7.72;6.93;;;;;;;4.64;67.90;100059.91;4962591;28;96684;-70
2020/12/02 07:54:25;;;;;;;8.52;7.63;;;;;;;4.49;68.36;100055.19;4937012;28;99382;-70
2020/12/02 07:56:52;;;;;;;9.10;8.10;;;;;;;4.43;68.85;100063.09;4942755;28;98773;-69
2020/12/02 07:59:46;;;;;;;9.10;7.75;;;;;;;4.50;68.67;100056.88;4945123;28;97053;-70
2020/12/02 08:02:17;;;;;;;10.77;9.67;;;;;;;4.65;68.38;100053.03;4944036;28;97604;-68
2020/12/02 08:04:55;;;;;;;10.65;9.23;;;;;;;4.63;68.10;100047.88;4963972;28;98507;-69
2020/12/02 08:07:22;;;;;;;11.95;8.27;;;;;;;4.45;69.15;100048.41;4949862;28;98687;-68
2020/12/02 08:09:50;;;;;;;10.85;8.95;;;;;;;4.69;68.13;100042.56;4944591;28;97772;-67
2020/12/02 08:12:26;;;;;;;9.75;8.15;;;;;;;4.55;68.70;100042.09;4959629;28;96809;-69
2020/12/02 08:15:06;;;;;;;9.55;8.45;;;;;;;4.71;68.10;100038.19;4948154;28;98433;-69
2020/12/02 08:17:33;;;;;;;12.27;10.40;;;;;;;4.70;67.96;100044.25;4958973;28;98872;-70
2020/12/02 08:20:00;;;;;;;12.48;10.40;;;;;;;4.79;67.95;100047.44;4945468;28;97903;-70
2020/12/02 08:22:43;;;;;;;11.40;10.10;;;;;;;4.82;67.37;100049.94;4945246;28;96777;-70
2020/12/02 08:25:25;;;;;;;12.18;10.85;;;;;;;4.78;66.91;100062.09;4944682;28;98966;-67
2020/12/02 08:27:54;;;;;;;17.17;13.10;;;;;;;4.64;67.77;100061.66;4957860;28;98558;-68
2020/12/02 08:30:23;;;;;;;18.95;13.57;;;;;;;4.60;68.19;100062.63;4946915;28;96862;-68
2020/12/02 08:32:55;;;;;;;16.05;12.95;;;;;;;4.78;67.61;100071.56;4949026;28;96611;-68
2020/12/02 08:35:48;;;;;;;14.18;12.05;;;;;;;4.64;68.26;100064.25;4942391;28;98727;-70
2020/12/02 08:38:15;;;;;;;13.25;11.48;;;;;;;4.73;67.50;100074.28;4946366;28;98610;-67
2020/12/02 08:40:49;;;;;;;17.10;13.82;;;;;;;4.51;68.88;100074.03;4941686;28;96691;-68
2020/12/02 08:43:17;;;;;;;15.23;11.83;;;;;;;4.60;68.52;100073.78;4946992;28;98449;-69
2020/12/02 08:46:02;;;;;;;16.40;12.88;;;;;;;4.71;68.03;100063.16;4947505;28;98638;-69
2020/12/02 08:48:28;;;;;;;;;;;;;;;4.77;68.23;100067.31;4948042;28;98427;-69
2020/12/02 08:50:55;;;;;;;20.55;15.85;;;;;;;4.62;68.55;100066.00;4946011;28;96768;-69
2020/12/02 08:53:23;;;;;;;19.25;13.57;;;;;;;4.51;68.80;100073.19;4943560;28;97074;-69
2020/12/02 08:55:49;;;;;;;19.40;13.48;;;;;;;4.64;68.35;100074.56;4949203;28;98526;-69
2020/12/02 08:58:16;;;;;;;17.67;14.07;;;;;;;4.63;68.36;100076.28;4949219;28;98554;-68
2020/12/02 09:00:42;;;;;;;17.63;12.68;;;;;;;4.70;68.29;100079.56;4950990;28;100633;-68
2020/12/02 09:03:08;;;;;;;18.65;13.18;;;;;;;4.69;67.91;100089.03;4943996;28;97097;-68
2020/12/02 09:05:35;;;;;;;18.80;14.40;;;;;;;4.75;68.03;100082.00;4950370;28;97602;-68
2020/12/02 09:08:02;;;;;;;18.52;12.90;;;;;;;4.67;68.54;100090.78;4952911;28;98719;-68
2020/12/02 09:10:28;;;;;;;16.25;12.75;;;;;;;4.48;68.74;100087.06;4949759;28;96883;-69
2020/12/02 09:12:56;;;;;;;17.60;12.85;;;;;;;4.63;68.69;100083.19;4944375;28;96813;-69
2020/12/02 09:15:22;;;;;;;14.65;12.82;;;;;;;4.73;67.99;100075.13;4943728;28;98483;-69
2020/12/02 09:17:49;;;;;;;17.00;11.23;;;;;;;4.68;68.29;100071.81;4947405;28;97930;-69
2020/12/02 09:20:16;;;;;;;14.18;11.43;;;;;;;4.68;68.29;100077.00;4943119;28;96887;-69
2020/12/02 09:22:43;;;;;;;14.88;11.77;;;;;;;4.79;67.69;100078.41;4946089;28;99448;-69
2020/12/02 09:25:09;;;;;;;13.00;11.55;;;;;;;4.70;68.39;100082.97;4944936;28;98547;-68
2020/12/02 09:27:36;;;;;;;17.55;15.15;;;;;;;4.73;68.34;100088.03;4944507;28;98615;-69
2020/12/02 09:30:04;;;;;;;16.20;12.38;;;;;;;4.86;67.48;100090.28;4945704;28;96631;-69
2020/12/02 09:32:30;;;;;;;15.32;13.63;;;;;;;4.94;67.14;100090.91;4944616;28;96725;-68
2020/12/02 09:34:59;;;;;;;18.00;15.10;;;;;;;5.00;66.84;100088.97;4950338;28;98519;-70
2020/12/02 09:37:25;;;;;;;16.40;12.10;;;;;;;4.73;67.73;100090.63;4939807;28;98541;-69
2020/12/02 09:39:54;;;;;;;19.17;13.70;;;;;;;4.77;67.94;100075.06;4941586;28;96614;-69
2020/12/02 09:42:30;;;;;;;13.90;12.50;;;;;;;4.69;68.62;100083.03;4941616;28;96697;-69
2020/12/02 09:45:09;;;;;;;17.40;11.73;;;;;;;4.81;68.26;100076.66;4945076;28;98694;-71
2020/12/02 09:47:36;;;;;;;18.02;13.05;;;;;;;4.69;68.33;100076.13;4943537;28;97512;-70
2020/12/02 09:50:03;;;;;;;16.70;12.27;;;;;;;4.84;68.32;100079.97;4943274;28;96749;-68
2020/12/02 09:52:41;;;;;;;15.70;13.82;;;;;;;4.75;68.48;100077.69;4953427;28;97026;-68
2020/12/02 09:55:35;;;;;;;15.32;12.02;;;;;;;4.68;68.72;100081.31;4947558;28;98728;-68
2020/12/02 09:58:02;;;;;;;15.15;12.20;;;;;;;4.63;69.19;100081.44;4946372;28;98810;-69
2020/12/02 10:00:28;;;;;;;16.58;12.80;;;;;;;4.91;67.89;100083.25;4942421;28;96620;-68
2020/12/02 10:03:04;;;;;;;17.58;13.93;;;;;;;4.99;67.67;100078.69;4941570;28;97447;-68
2020/12/02 10:05:33;;;;;;;20.42;14.00;;;;;;;4.86;68.34;100080.81;4949770;28;98647;-68
2020/12/02 10:08:08;;;;;;;18.58;12.90;;;;;;;4.99;67.50;100074.38;4952689;28;98499;-68
2020/12/02 10:10:38;;;;;;;14.57;13.05;;;;;;;4.89;67.48;100079.84;4952362;28;96936;-68
2020/12/02 10:13:26;;;;;;;14.40;12.90;;;;;;;4.85;67.74;100078.28;4954595;28;96661;-68
2020/12/02 10:15:57;;;;;;;16.17;11.38;;;;;;;4.80;68.61;100080.16;4946989;28;99045;-68
2020/12/02 10:18:46;;;;;;;13.82;10.95;;;;;;;4.79;68.60;100078.41;4943023;28;98527;-67
2020/12/02 10:21:33;;;;;;;15.63;10.75;;;;;;;4.77;68.37;100077.63;4954220;28;96976;-67
2020/12/02 10:24:15;;;;;;;12.75;10.35;;;;;;;4.94;67.44;100075.41;4948949;28;97734;-68
2020/12/02 10:27:12;;;;;;;11.70;10.05;;;;;;;4.96;67.77;100076.22;4941652;28;99434;-67
2020/12/02 10:29:42;;;;;;;14.13;10.70;;;;;;;4.92;68.27;100075.44;4942970;28;98616;-68
2020/12/02 10:32:38;;;;;;;13.75;11.10;;;;;;;4.86;68.30;100073.06;4941876;28;97856;-70
2020/12/02 10:35:05;;;;;;;12.35;9.50;;;;;;;4.74;68.76;100076.00;4943508;28;98591;-69
2020/12/02 10:37:34;;;;;;;12.85;10.25;;;;;;;4.78;68.52;100077.56;4932328;28;98406;-68
2020/12/02 10:40:00;;;;;;;15.65;13.05;;;;;;;4.71;68.50;100076.91;4933181;28;98655;-69
2020/12/02 10:42:32;;;;;;;13.60;11.70;;;;;;;4.58;69.57;100073.00;4941626;28;96833;-69
2020/12/02 10:45:16;;;;;;;14.57;11.02;;;;;;;4.68;68.76;100082.16;4944730;28;96732;-67
2020/12/02 10:48:06;;;;;;;16.40;10.57;;;;;;;4.58;69.40;100082.47;4941991;28;98546;-66
2020/12/02 10:50:34;;;;;;;13.57;9.73;;;;;;;4.70;68.95;100082.97;4945258;28;98741;-64
2020/12/02 10:53:09;;;;;;;13.70;11.25;;;;;;;4.85;67.87;100083.44;4943184;28;97214;-68
2020/12/02 10:55:36;;;;;;;14.60;9.60;;;;;;;4.88;67.62;100078.16;4944298;28;96707;-64
2020/12/02 10:58:18;;;;;;;11.93;9.23;;;;;;;4.69;68.86;100073.53;4941647;28;98583;-68
2020/12/02 11:00:51;;;;;;;13.30;10.00;;;;;;;4.82;68.66;100079.19;4954325;28;97148;-68
2020/12/02 11:03:21;;;;;;;13.52;10.85;;;;;;;4.73;68.38;100069.97;4952797;28;96938;-67
2020/12/02 11:06:09;;;;;;;12.50;10.73;;;;;;;4.71;68.31;100053.69;4952415;28;96542;-66
2020/12/02 11:09:02;;;;;;;10.10;9.05;;;;;;;4.57;69.25;100047.22;4953306;28;98548;-67
2020/12/02 11:11:34;;;;;;;11.98;10.32;;;;;;;4.63;69.32;100047.88;4955695;28;98489;-67
2020/12/02 11:14:35;;;;;;;14.35;9.82;;;;;;;4.81;68.46;100043.94;4954670;28;96606;-67
2020/12/02 11:17:30;;;;;;;12.68;9.68;;;;;;;4.67;68.82;100043.47;4955112;28;96620;-67
2020/12/02 11:20:15;;;;;;;12.07;10.07;;;;;;;4.75;68.67;100051.03;4956266;28;98530;-67
2020/12/02 11:22:42;;;;;;;12.43;10.20;;;;;;;4.73;69.10;100038.97;4953225;28;98658;-67
2020/12/02 11:25:53;;;;;;;12.63;10.45;;;;;;;4.95;67.97;100043.50;4947254;28;96772;-67
2020/12/02 11:28:19;;;;;;;13.93;12.02;;;;;;;4.71;68.85;100045.94;4943325;28;96945;-68
2020/12/02 11:30:46;;;;;;;16.00;12.52;;;;;;;4.83;68.85;100046.47;4942964;28;100005;-67
2020/12/02 11:33:31;;;;;;;12.18;10.27;;;;;;;4.87;68.18;100041.16;4942504;28;98524;-67
2020/12/02 11:36:30;;;;;;;14.02;10.85;;;;;;;4.84;68.61;100046.41;4946860;28;96834;-68
2020/12/02 11:39:07;;;;;;;10.07;9.02;;;;;;;4.90;68.25;100041.09;4933461;28;96817;-68
2020/12/02 11:41:56;;;;;;;10.80;9.07;;;;;;;4.93;67.98;100038.38;4935774;28;98528;-67
2020/12/02 11:44:34;;;;;;;11.90;10.05;;;;;;;4.88;68.89;100026.50;4936051;28;98613;-67
2020/12/02 11:47:38;;;;;;;12.27;10.23;;;;;;;4.85;68.51;100022.28;4963397;28;96843;-67
2020/12/02 11:50:22;;;;;;;12.45;10.10;;;;;;;4.78;69.10;100019.91;4942754;28;98390;-67
2020/12/02 11:53:32;;;;;;;14.35;10.93;;;;;;;4.86;69.22;100023.13;4960746;28;98887;-67
2020/12/02 11:55:59;;;;;;;17.05;13.80;;;;;;;4.80;69.31;100020.75;4947706;28;99731;-67
2020/12/02 11:58:25;;;;;;;15.20;12.05;;;;;;;4.85;68.84;100021.44;4946949;28;96677;-67
2020/12/02 12:00:52;;;;;;;14.07;10.98;;;;;;;4.87;68.90;100025.66;4947422;28;96911;-66